sensor_id;sensor_type;location;lat;lon;timestamp;P1;durP1;ratioP1;P2;durP2;ratioP2
22186;SDS011;11259;52.146;12.844;2022-11-15T00:00:08;9.10;;;4.65;;
22186;SDS011;11259;52.146;12.844;2022-11-15T00:02:35;10.57;;;5.68;;
22186;SDS011;11259;52.146;12.844;2022-11-15T00:05:00;8.80;;;5.00;;
22186;SDS011;11259;52.146;12.844;2022-11-15T00:07:27;5.20;;;4.28;;
22186;SDS011;11259;52.146;12.844;2022-11-15T00:09:53;10.45;;;4.50;;
22186;SDS011;11259;52.146;12.844;2022-11-15T00:12:19;6.88;;;4.55;;
22186;SDS011;11259;52.146;12.844;2022-11-15T00:14:45;10.25;;;4.95;;
22186;SDS011;11259;52.146;12.844;2022-11-15T00:17:11;7.28;;;4.55;;
22186;SDS011;11259;52.146;12.844;2022-11-15T00:19:36;7.47;;;4.32;;
22186;SDS011;11259;52.146;12.844;2022-11-15T00:22:04;6.00;;;3.83;;
22186;SDS011;11259;52.146;12.844;2022-11-15T00:24:31;10.00;;;5.38;;
22186;SDS011;11259;52.146;12.844;2022-11-15T00:26:56;9.13;;;5.45;;
22186;SDS011;11259;52.146;12.844;2022-11-15T00:29:22;7.38;;;4.50;;
22186;SDS011;11259;52.146;12.844;2022-11-15T00:31:48;7.55;;;4.07;;
22186;SDS011;11259;52.146;12.844;2022-11-15T00:34:13;5.72;;;3.78;;
22186;SDS011;11259;52.146;12.844;2022-11-15T00:36:42;7.90;;;4.93;;
22186;SDS011;11259;52.146;12.844;2022-11-15T00:39:08;8.88;;;4.88;;
22186;SDS011;11259;52.146;12.844;2022-11-15T00:41:35;6.80;;;4.28;;
22186;SDS011;11259;52.146;12.844;2022-11-15T00:44:01;7.72;;;4.60;;
22186;SDS011;11259;52.146;12.844;2022-11-15T00:46:27;9.15;;;5.13;;
22186;SDS011;11259;52.146;12.844;2022-11-15T00:48:52;12.73;;;5.82;;
22186;SDS011;11259;52.146;12.844;2022-11-15T00:51:18;10.77;;;5.43;;
22186;SDS011;11259;52.146;12.844;2022-11-15T00:53:44;11.10;;;5.18;;
22186;SDS011;11259;52.146;12.844;2022-11-15T00:56:10;7.88;;;5.40;;
22186;SDS011;11259;52.146;12.844;2022-11-15T00:58:37;8.50;;;5.38;;
22186;SDS011;11259;52.146;12.844;2022-11-15T01:01:06;7.18;;;4.95;;
22186;SDS011;11259;52.146;12.844;2022-11-15T01:03:33;7.63;;;4.53;;
22186;SDS011;11259;52.146;12.844;2022-11-15T01:05:59;9.07;;;5.10;;
22186;SDS011;11259;52.146;12.844;2022-11-15T01:08:24;9.25;;;4.53;;
22186;SDS011;11259;52.146;12.844;2022-11-15T01:10:50;5.10;;;3.63;;
22186;SDS011;11259;52.146;12.844;2022-11-15T01:13:16;7.15;;;4.70;;
22186;SDS011;11259;52.146;12.844;2022-11-15T01:15:43;9.05;;;4.72;;
22186;SDS011;11259;52.146;12.844;2022-11-15T01:18:08;5.90;;;3.83;;
22186;SDS011;11259;52.146;12.844;2022-11-15T01:20:34;9.15;;;4.43;;
22186;SDS011;11259;52.146;12.844;2022-11-15T01:23:03;8.15;;;4.38;;
22186;SDS011;11259;52.146;12.844;2022-11-15T01:25:29;9.20;;;4.57;;
22186;SDS011;11259;52.146;12.844;2022-11-15T01:27:55;11.07;;;4.90;;
22186;SDS011;11259;52.146;12.844;2022-11-15T01:30:20;8.63;;;4.38;;
22186;SDS011;11259;52.146;12.844;2022-11-15T01:32:48;6.95;;;4.68;;
22186;SDS011;11259;52.146;12.844;2022-11-15T01:35:14;9.23;;;3.80;;
22186;SDS011;11259;52.146;12.844;2022-11-15T01:37:40;9.82;;;4.78;;
22186;SDS011;11259;52.146;12.844;2022-11-15T01:40:06;8.93;;;4.50;;
22186;SDS011;11259;52.146;12.844;2022-11-15T01:42:33;8.80;;;4.43;;
22186;SDS011;11259;52.146;12.844;2022-11-15T01:44:59;7.50;;;4.28;;
22186;SDS011;11259;52.146;12.844;2022-11-15T01:47:26;6.97;;;4.57;;
22186;SDS011;11259;52.146;12.844;2022-11-15T01:49:56;5.75;;;3.92;;
22186;SDS011;11259;52.146;12.844;2022-11-15T01:52:24;5.10;;;3.80;;
22186;SDS011;11259;52.146;12.844;2022-11-15T01:54:51;7.15;;;4.03;;
22186;SDS011;11259;52.146;12.844;2022-11-15T01:57:19;8.82;;;5.05;;
22186;SDS011;11259;52.146;12.844;2022-11-15T01:59:44;8.02;;;4.18;;
22186;SDS011;11259;52.146;12.844;2022-11-15T02:02:11;7.07;;;3.47;;
22186;SDS011;11259;52.146;12.844;2022-11-15T02:04:37;9.00;;;3.95;;
22186;SDS011;11259;52.146;12.844;2022-11-15T02:07:06;6.22;;;4.32;;
22186;SDS011;11259;52.146;12.844;2022-11-15T02:09:34;10.95;;;4.68;;
22186;SDS011;11259;52.146;12.844;2022-11-15T02:12:00;7.72;;;3.90;;
22186;SDS011;11259;52.146;12.844;2022-11-15T02:14:26;6.72;;;4.03;;
22186;SDS011;11259;52.146;12.844;2022-11-15T02:16:53;40.67;;;4.28;;
22186;SDS011;11259;52.146;12.844;2022-11-15T02:19:28;5.28;;;3.38;;
22186;SDS011;11259;52.146;12.844;2022-11-15T02:22:07;4.45;;;3.10;;
22186;SDS011;11259;52.146;12.844;2022-11-15T02:24:47;8.95;;;3.88;;
22186;SDS011;11259;52.146;12.844;2022-11-15T02:27:38;5.43;;;2.47;;
22186;SDS011;11259;52.146;12.844;2022-11-15T02:30:23;7.03;;;3.10;;
22186;SDS011;11259;52.146;12.844;2022-11-15T02:32:50;5.45;;;3.53;;
22186;SDS011;11259;52.146;12.844;2022-11-15T02:35:19;5.13;;;3.10;;
22186;SDS011;11259;52.146;12.844;2022-11-15T02:37:51;7.15;;;3.97;;
22186;SDS011;11259;52.146;12.844;2022-11-15T02:40:22;7.88;;;3.92;;
22186;SDS011;11259;52.146;12.844;2022-11-15T02:42:53;4.38;;;3.03;;
22186;SDS011;11259;52.146;12.844;2022-11-15T02:45:21;5.45;;;3.75;;
22186;SDS011;11259;52.146;12.844;2022-11-15T02:47:50;6.47;;;4.00;;
22186;SDS011;11259;52.146;12.844;2022-11-15T02:50:18;7.53;;;4.32;;
22186;SDS011;11259;52.146;12.844;2022-11-15T02:52:46;5.40;;;3.67;;
22186;SDS011;11259;52.146;12.844;2022-11-15T02:57:54;4.55;;;3.22;;
22186;SDS011;11259;52.146;12.844;2022-11-15T03:00:26;8.23;;;3.78;;
22186;SDS011;11259;52.146;12.844;2022-11-15T03:02:57;5.82;;;3.40;;
22186;SDS011;11259;52.146;12.844;2022-11-15T03:05:37;6.68;;;3.78;;
22186;SDS011;11259;52.146;12.844;2022-11-15T03:08:08;5.97;;;3.63;;
22186;SDS011;11259;52.146;12.844;2022-11-15T03:10:37;4.95;;;3.10;;
22186;SDS011;11259;52.146;12.844;2022-11-15T03:13:09;6.05;;;4.20;;
22186;SDS011;11259;52.146;12.844;2022-11-15T03:15:44;6.03;;;3.42;;
22186;SDS011;11259;52.146;12.844;2022-11-15T03:18:15;6.60;;;3.50;;
22186;SDS011;11259;52.146;12.844;2022-11-15T03:23:47;5.15;;;3.20;;
22186;SDS011;11259;52.146;12.844;2022-11-15T03:26:14;5.35;;;2.83;;
22186;SDS011;11259;52.146;12.844;2022-11-15T03:28:41;6.80;;;3.38;;
22186;SDS011;11259;52.146;12.844;2022-11-15T03:31:09;5.20;;;3.22;;
22186;SDS011;11259;52.146;12.844;2022-11-15T03:33:37;3.95;;;3.10;;
22186;SDS011;11259;52.146;12.844;2022-11-15T03:36:02;5.18;;;2.92;;
22186;SDS011;11259;52.146;12.844;2022-11-15T03:38:29;5.85;;;3.17;;
22186;SDS011;11259;52.146;12.844;2022-11-15T03:40:56;6.10;;;3.25;;
22186;SDS011;11259;52.146;12.844;2022-11-15T03:43:25;5.68;;;3.55;;
22186;SDS011;11259;52.146;12.844;2022-11-15T03:45:55;7.13;;;3.03;;
22186;SDS011;11259;52.146;12.844;2022-11-15T03:48:25;6.20;;;3.78;;
22186;SDS011;11259;52.146;12.844;2022-11-15T03:50:53;6.80;;;4.15;;
22186;SDS011;11259;52.146;12.844;2022-11-15T03:53:18;6.07;;;2.92;;
22186;SDS011;11259;52.146;12.844;2022-11-15T03:55:43;5.65;;;3.30;;
22186;SDS011;11259;52.146;12.844;2022-11-15T03:58:09;4.35;;;2.90;;
22186;SDS011;11259;52.146;12.844;2022-11-15T04:00:34;7.20;;;2.85;;
22186;SDS011;11259;52.146;12.844;2022-11-15T04:02:59;8.20;;;4.00;;
22186;SDS011;11259;52.146;12.844;2022-11-15T04:05:26;5.43;;;3.03;;
22186;SDS011;11259;52.146;12.844;2022-11-15T04:07:52;5.53;;;3.40;;
22186;SDS011;11259;52.146;12.844;2022-11-15T04:10:17;5.07;;;2.83;;
22186;SDS011;11259;52.146;12.844;2022-11-15T04:12:43;4.95;;;3.05;;
22186;SDS011;11259;52.146;12.844;2022-11-15T04:15:10;4.47;;;3.28;;
22186;SDS011;11259;52.146;12.844;2022-11-15T04:17:38;4.80;;;2.92;;
22186;SDS011;11259;52.146;12.844;2022-11-15T04:20:04;6.45;;;3.28;;
22186;SDS011;11259;52.146;12.844;2022-11-15T04:22:32;5.90;;;3.72;;
22186;SDS011;11259;52.146;12.844;2022-11-15T04:24:57;9.38;;;3.80;;
22186;SDS011;11259;52.146;12.844;2022-11-15T04:27:22;6.43;;;3.60;;
22186;SDS011;11259;52.146;12.844;2022-11-15T04:29:48;7.63;;;4.35;;
22186;SDS011;11259;52.146;12.844;2022-11-15T04:32:13;4.68;;;2.70;;
22186;SDS011;11259;52.146;12.844;2022-11-15T04:34:38;6.55;;;3.90;;
22186;SDS011;11259;52.146;12.844;2022-11-15T04:37:04;9.77;;;4.30;;
22186;SDS011;11259;52.146;12.844;2022-11-15T04:39:30;7.93;;;3.22;;
22186;SDS011;11259;52.146;12.844;2022-11-15T04:41:56;7.55;;;3.83;;
22186;SDS011;11259;52.146;12.844;2022-11-15T04:44:21;5.20;;;3.60;;
22186;SDS011;11259;52.146;12.844;2022-11-15T04:46:46;4.80;;;3.42;;
22186;SDS011;11259;52.146;12.844;2022-11-15T04:49:11;5.00;;;3.50;;
22186;SDS011;11259;52.146;12.844;2022-11-15T04:51:37;7.75;;;4.15;;
22186;SDS011;11259;52.146;12.844;2022-11-15T04:54:02;6.95;;;4.38;;
22186;SDS011;11259;52.146;12.844;2022-11-15T04:56:29;6.18;;;4.60;;
22186;SDS011;11259;52.146;12.844;2022-11-15T04:58:55;9.07;;;3.97;;
22186;SDS011;11259;52.146;12.844;2022-11-15T05:01:20;6.38;;;3.80;;
22186;SDS011;11259;52.146;12.844;2022-11-15T05:03:45;8.30;;;4.25;;
22186;SDS011;11259;52.146;12.844;2022-11-15T05:06:11;8.50;;;5.30;;
22186;SDS011;11259;52.146;12.844;2022-11-15T05:08:36;6.18;;;4.10;;
22186;SDS011;11259;52.146;12.844;2022-11-15T05:11:01;5.88;;;3.55;;
22186;SDS011;11259;52.146;12.844;2022-11-15T05:13:28;5.30;;;3.75;;
22186;SDS011;11259;52.146;12.844;2022-11-15T05:15:53;7.38;;;4.78;;
22186;SDS011;11259;52.146;12.844;2022-11-15T05:18:19;7.75;;;4.28;;
22186;SDS011;11259;52.146;12.844;2022-11-15T05:20:44;10.00;;;4.53;;
22186;SDS011;11259;52.146;12.844;2022-11-15T05:23:09;7.50;;;4.78;;
22186;SDS011;11259;52.146;12.844;2022-11-15T05:25:35;8.00;;;5.10;;
22186;SDS011;11259;52.146;12.844;2022-11-15T05:28:01;7.10;;;3.80;;
22186;SDS011;11259;52.146;12.844;2022-11-15T05:30:27;6.47;;;4.47;;
22186;SDS011;11259;52.146;12.844;2022-11-15T05:32:53;5.78;;;3.83;;
22186;SDS011;11259;52.146;12.844;2022-11-15T05:35:19;5.85;;;3.92;;
22186;SDS011;11259;52.146;12.844;2022-11-15T05:37:47;6.55;;;4.30;;
22186;SDS011;11259;52.146;12.844;2022-11-15T05:40:13;10.10;;;4.20;;
22186;SDS011;11259;52.146;12.844;2022-11-15T05:42:39;6.22;;;4.00;;
22186;SDS011;11259;52.146;12.844;2022-11-15T05:45:05;6.60;;;4.55;;
22186;SDS011;11259;52.146;12.844;2022-11-15T05:47:33;9.60;;;4.43;;
22186;SDS011;11259;52.146;12.844;2022-11-15T05:49:59;6.70;;;4.35;;
22186;SDS011;11259;52.146;12.844;2022-11-15T05:52:25;8.38;;;4.10;;
22186;SDS011;11259;52.146;12.844;2022-11-15T05:54:53;7.13;;;4.80;;
22186;SDS011;11259;52.146;12.844;2022-11-15T05:57:20;5.43;;;4.30;;
22186;SDS011;11259;52.146;12.844;2022-11-15T05:59:45;8.38;;;5.25;;
22186;SDS011;11259;52.146;12.844;2022-11-15T06:02:11;5.63;;;3.47;;
22186;SDS011;11259;52.146;12.844;2022-11-15T06:04:38;10.68;;;4.82;;
22186;SDS011;11259;52.146;12.844;2022-11-15T06:07:03;8.02;;;4.50;;
22186;SDS011;11259;52.146;12.844;2022-11-15T06:09:28;11.27;;;3.78;;
22186;SDS011;11259;52.146;12.844;2022-11-15T06:11:54;7.60;;;4.38;;
22186;SDS011;11259;52.146;12.844;2022-11-15T06:14:19;6.63;;;4.18;;
22186;SDS011;11259;52.146;12.844;2022-11-15T06:16:44;7.13;;;3.80;;
22186;SDS011;11259;52.146;12.844;2022-11-15T06:19:10;7.80;;;3.97;;
22186;SDS011;11259;52.146;12.844;2022-11-15T06:21:36;9.55;;;5.07;;
22186;SDS011;11259;52.146;12.844;2022-11-15T06:24:02;7.93;;;4.00;;
22186;SDS011;11259;52.146;12.844;2022-11-15T06:26:27;7.30;;;4.45;;
22186;SDS011;11259;52.146;12.844;2022-11-15T06:28:53;4.82;;;2.78;;
22186;SDS011;11259;52.146;12.844;2022-11-15T06:31:18;5.53;;;3.95;;
22186;SDS011;11259;52.146;12.844;2022-11-15T06:33:43;4.45;;;3.47;;
22186;SDS011;11259;52.146;12.844;2022-11-15T06:36:09;5.75;;;3.60;;
22186;SDS011;11259;52.146;12.844;2022-11-15T06:38:37;4.85;;;3.25;;
22186;SDS011;11259;52.146;12.844;2022-11-15T06:41:03;7.50;;;3.42;;
22186;SDS011;11259;52.146;12.844;2022-11-15T06:43:29;9.07;;;3.85;;
22186;SDS011;11259;52.146;12.844;2022-11-15T06:45:55;6.45;;;3.72;;
22186;SDS011;11259;52.146;12.844;2022-11-15T06:48:20;6.60;;;4.32;;
22186;SDS011;11259;52.146;12.844;2022-11-15T06:50:49;5.63;;;3.30;;
22186;SDS011;11259;52.146;12.844;2022-11-15T06:53:15;10.27;;;4.47;;
22186;SDS011;11259;52.146;12.844;2022-11-15T06:55:42;4.65;;;3.40;;
22186;SDS011;11259;52.146;12.844;2022-11-15T06:58:07;7.05;;;3.72;;
22186;SDS011;11259;52.146;12.844;2022-11-15T07:00:32;5.78;;;3.58;;
22186;SDS011;11259;52.146;12.844;2022-11-15T07:02:59;6.03;;;4.13;;
22186;SDS011;11259;52.146;12.844;2022-11-15T07:05:24;5.25;;;3.25;;
22186;SDS011;11259;52.146;12.844;2022-11-15T07:07:53;5.72;;;3.65;;
22186;SDS011;11259;52.146;12.844;2022-11-15T07:10:18;4.97;;;3.70;;
22186;SDS011;11259;52.146;12.844;2022-11-15T07:12:47;12.75;;;4.60;;
22186;SDS011;11259;52.146;12.844;2022-11-15T07:15:12;6.38;;;3.95;;
22186;SDS011;11259;52.146;12.844;2022-11-15T07:17:38;11.07;;;4.47;;
22186;SDS011;11259;52.146;12.844;2022-11-15T07:20:03;4.07;;;3.08;;
22186;SDS011;11259;52.146;12.844;2022-11-15T07:22:29;6.75;;;3.50;;
22186;SDS011;11259;52.146;12.844;2022-11-15T07:24:55;7.22;;;4.20;;
22186;SDS011;11259;52.146;12.844;2022-11-15T07:27:20;5.75;;;4.15;;
22186;SDS011;11259;52.146;12.844;2022-11-15T07:29:47;8.65;;;4.30;;
22186;SDS011;11259;52.146;12.844;2022-11-15T07:32:12;7.32;;;4.38;;
22186;SDS011;11259;52.146;12.844;2022-11-15T07:34:38;4.95;;;3.83;;
22186;SDS011;11259;52.146;12.844;2022-11-15T07:37:03;5.72;;;3.92;;
22186;SDS011;11259;52.146;12.844;2022-11-15T07:39:28;6.95;;;3.75;;
22186;SDS011;11259;52.146;12.844;2022-11-15T07:41:54;7.35;;;3.45;;
22186;SDS011;11259;52.146;12.844;2022-11-15T07:44:19;6.07;;;2.95;;
22186;SDS011;11259;52.146;12.844;2022-11-15T07:46:46;6.45;;;4.32;;
22186;SDS011;11259;52.146;12.844;2022-11-15T07:49:11;8.52;;;4.65;;
22186;SDS011;11259;52.146;12.844;2022-11-15T07:51:36;5.78;;;3.75;;
22186;SDS011;11259;52.146;12.844;2022-11-15T07:54:02;6.70;;;4.95;;
22186;SDS011;11259;52.146;12.844;2022-11-15T07:56:27;5.75;;;4.55;;
22186;SDS011;11259;52.146;12.844;2022-11-15T07:58:52;5.50;;;3.75;;
22186;SDS011;11259;52.146;12.844;2022-11-15T08:01:18;5.07;;;3.40;;
22186;SDS011;11259;52.146;12.844;2022-11-15T08:03:44;5.63;;;2.70;;
22186;SDS011;11259;52.146;12.844;2022-11-15T08:06:10;4.45;;;3.30;;
22186;SDS011;11259;52.146;12.844;2022-11-15T08:08:35;8.35;;;3.80;;
22186;SDS011;11259;52.146;12.844;2022-11-15T08:11:00;6.82;;;3.72;;
22186;SDS011;11259;52.146;12.844;2022-11-15T08:13:26;8.93;;;4.82;;
22186;SDS011;11259;52.146;12.844;2022-11-15T08:15:52;4.63;;;3.28;;
22186;SDS011;11259;52.146;12.844;2022-11-15T08:18:17;6.25;;;3.80;;
22186;SDS011;11259;52.146;12.844;2022-11-15T08:20:44;5.70;;;3.53;;
22186;SDS011;11259;52.146;12.844;2022-11-15T08:23:10;4.65;;;3.08;;
22186;SDS011;11259;52.146;12.844;2022-11-15T08:25:36;5.72;;;3.70;;
22186;SDS011;11259;52.146;12.844;2022-11-15T08:28:03;7.70;;;3.88;;
22186;SDS011;11259;52.146;12.844;2022-11-15T08:30:30;5.07;;;3.00;;
22186;SDS011;11259;52.146;12.844;2022-11-15T08:32:56;5.85;;;3.67;;
22186;SDS011;11259;52.146;12.844;2022-11-15T08:35:22;6.03;;;3.90;;
22186;SDS011;11259;52.146;12.844;2022-11-15T08:37:48;5.35;;;3.67;;
22186;SDS011;11259;52.146;12.844;2022-11-15T08:40:14;7.68;;;3.80;;
22186;SDS011;11259;52.146;12.844;2022-11-15T08:42:40;8.05;;;4.50;;
22186;SDS011;11259;52.146;12.844;2022-11-15T08:45:06;5.82;;;3.47;;
22186;SDS011;11259;52.146;12.844;2022-11-15T08:47:32;4.63;;;3.45;;
22186;SDS011;11259;52.146;12.844;2022-11-15T08:49:58;4.47;;;3.50;;
22186;SDS011;11259;52.146;12.844;2022-11-15T08:52:23;8.00;;;3.85;;
22186;SDS011;11259;52.146;12.844;2022-11-15T08:54:50;5.35;;;3.00;;
22186;SDS011;11259;52.146;12.844;2022-11-15T08:57:15;6.07;;;3.92;;
22186;SDS011;11259;52.146;12.844;2022-11-15T08:59:40;7.57;;;3.47;;
22186;SDS011;11259;52.146;12.844;2022-11-15T09:02:06;4.53;;;3.08;;
22186;SDS011;11259;52.146;12.844;2022-11-15T09:04:31;6.07;;;4.22;;
22186;SDS011;11259;52.146;12.844;2022-11-15T09:06:57;4.93;;;3.70;;
22186;SDS011;11259;52.146;12.844;2022-11-15T09:09:22;5.22;;;2.63;;
22186;SDS011;11259;52.146;12.844;2022-11-15T09:11:49;7.18;;;4.03;;
22186;SDS011;11259;52.146;12.844;2022-11-15T09:14:14;5.53;;;3.30;;
22186;SDS011;11259;52.146;12.844;2022-11-15T09:16:39;4.40;;;3.70;;
22186;SDS011;11259;52.146;12.844;2022-11-15T09:19:05;5.28;;;3.15;;
22186;SDS011;11259;52.146;12.844;2022-11-15T09:21:31;5.93;;;3.72;;
22186;SDS011;11259;52.146;12.844;2022-11-15T09:23:56;8.23;;;3.10;;
22186;SDS011;11259;52.146;12.844;2022-11-15T09:26:22;4.35;;;3.15;;
22186;SDS011;11259;52.146;12.844;2022-11-15T09:28:49;4.95;;;3.13;;
22186;SDS011;11259;52.146;12.844;2022-11-15T09:31:14;5.43;;;3.50;;
22186;SDS011;11259;52.146;12.844;2022-11-15T09:33:42;4.40;;;3.03;;
22186;SDS011;11259;52.146;12.844;2022-11-15T09:36:08;6.78;;;2.70;;
22186;SDS011;11259;52.146;12.844;2022-11-15T09:38:34;5.75;;;3.70;;
22186;SDS011;11259;52.146;12.844;2022-11-15T09:44:20;4.35;;;2.85;;
22186;SDS011;11259;52.146;12.844;2022-11-15T09:47:06;3.70;;;3.10;;
22186;SDS011;11259;52.146;12.844;2022-11-15T09:49:35;4.40;;;2.83;;
22186;SDS011;11259;52.146;12.844;2022-11-15T09:52:01;5.97;;;2.88;;
22186;SDS011;11259;52.146;12.844;2022-11-15T09:54:27;5.38;;;3.38;;
22186;SDS011;11259;52.146;12.844;2022-11-15T09:56:54;4.55;;;3.13;;
22186;SDS011;11259;52.146;12.844;2022-11-15T09:59:29;6.72;;;3.58;;
22186;SDS011;11259;52.146;12.844;2022-11-15T10:02:10;3.83;;;2.55;;
22186;SDS011;11259;52.146;12.844;2022-11-15T10:04:44;3.30;;;2.70;;
22186;SDS011;11259;52.146;12.844;2022-11-15T10:07:13;9.82;;;3.30;;
22186;SDS011;11259;52.146;12.844;2022-11-15T10:09:42;5.38;;;3.50;;
22186;SDS011;11259;52.146;12.844;2022-11-15T10:12:10;5.57;;;3.17;;
22186;SDS011;11259;52.146;12.844;2022-11-15T10:14:38;4.82;;;3.25;;
22186;SDS011;11259;52.146;12.844;2022-11-15T10:17:09;3.05;;;2.35;;
22186;SDS011;11259;52.146;12.844;2022-11-15T10:19:46;5.68;;;2.97;;
22186;SDS011;11259;52.146;12.844;2022-11-15T10:22:20;4.63;;;2.80;;
22186;SDS011;11259;52.146;12.844;2022-11-15T10:24:50;3.93;;;2.67;;
22186;SDS011;11259;52.146;12.844;2022-11-15T10:27:18;3.00;;;2.13;;
22186;SDS011;11259;52.146;12.844;2022-11-15T10:29:46;3.45;;;2.60;;
22186;SDS011;11259;52.146;12.844;2022-11-15T10:32:13;6.93;;;3.38;;
22186;SDS011;11259;52.146;12.844;2022-11-15T10:34:40;4.90;;;3.60;;
22186;SDS011;11259;52.146;12.844;2022-11-15T10:37:05;3.40;;;3.00;;
22186;SDS011;11259;52.146;12.844;2022-11-15T10:39:31;4.22;;;3.40;;
22186;SDS011;11259;52.146;12.844;2022-11-15T10:41:56;8.05;;;3.22;;
22186;SDS011;11259;52.146;12.844;2022-11-15T10:44:23;3.65;;;2.67;;
22186;SDS011;11259;52.146;12.844;2022-11-15T10:47:05;4.38;;;3.00;;
22186;SDS011;11259;52.146;12.844;2022-11-15T10:49:52;3.67;;;2.42;;
22186;SDS011;11259;52.146;12.844;2022-11-15T10:52:19;4.72;;;3.25;;
22186;SDS011;11259;52.146;12.844;2022-11-15T10:54:45;5.70;;;3.42;;
22186;SDS011;11259;52.146;12.844;2022-11-15T10:57:13;5.97;;;3.58;;
22186;SDS011;11259;52.146;12.844;2022-11-15T10:59:42;5.28;;;3.05;;
22186;SDS011;11259;52.146;12.844;2022-11-15T11:02:26;5.38;;;3.20;;
22186;SDS011;11259;52.146;12.844;2022-11-15T11:04:53;5.57;;;4.15;;
22186;SDS011;11259;52.146;12.844;2022-11-15T11:07:19;4.82;;;2.90;;
22186;SDS011;11259;52.146;12.844;2022-11-15T11:09:47;4.20;;;3.33;;
22186;SDS011;11259;52.146;12.844;2022-11-15T11:12:26;6.30;;;3.88;;
22186;SDS011;11259;52.146;12.844;2022-11-15T11:14:52;6.25;;;3.33;;
22186;SDS011;11259;52.146;12.844;2022-11-15T11:17:21;4.97;;;3.00;;
22186;SDS011;11259;52.146;12.844;2022-11-15T11:19:54;4.50;;;3.22;;
22186;SDS011;11259;52.146;12.844;2022-11-15T11:22:25;6.37;;;3.13;;
22186;SDS011;11259;52.146;12.844;2022-11-15T11:24:58;4.47;;;3.47;;
22186;SDS011;11259;52.146;12.844;2022-11-15T11:27:33;4.13;;;2.95;;
22186;SDS011;11259;52.146;12.844;2022-11-15T11:30:06;5.05;;;3.35;;
22186;SDS011;11259;52.146;12.844;2022-11-15T11:32:46;3.53;;;2.63;;
22186;SDS011;11259;52.146;12.844;2022-11-15T11:35:17;3.83;;;2.55;;
22186;SDS011;11259;52.146;12.844;2022-11-15T11:37:46;3.97;;;3.17;;
22186;SDS011;11259;52.146;12.844;2022-11-15T11:40:18;4.03;;;2.88;;
22186;SDS011;11259;52.146;12.844;2022-11-15T11:42:52;3.13;;;2.38;;
22186;SDS011;11259;52.146;12.844;2022-11-15T11:45:23;4.97;;;3.17;;
22186;SDS011;11259;52.146;12.844;2022-11-15T11:48:00;3.80;;;2.75;;
22186;SDS011;11259;52.146;12.844;2022-11-15T11:50:30;4.68;;;2.95;;
22186;SDS011;11259;52.146;12.844;2022-11-15T11:52:56;3.13;;;2.45;;
22186;SDS011;11259;52.146;12.844;2022-11-15T11:55:23;5.28;;;3.13;;
22186;SDS011;11259;52.146;12.844;2022-11-15T11:57:53;3.55;;;2.92;;
22186;SDS011;11259;52.146;12.844;2022-11-15T12:00:24;3.88;;;2.92;;
22186;SDS011;11259;52.146;12.844;2022-11-15T12:02:55;4.57;;;3.33;;
22186;SDS011;11259;52.146;12.844;2022-11-15T12:05:30;5.78;;;3.20;;
22186;SDS011;11259;52.146;12.844;2022-11-15T12:08:01;3.95;;;2.95;;
22186;SDS011;11259;52.146;12.844;2022-11-15T12:10:37;3.53;;;2.95;;
22186;SDS011;11259;52.146;12.844;2022-11-15T12:13:06;3.97;;;2.88;;
22186;SDS011;11259;52.146;12.844;2022-11-15T12:15:35;5.80;;;2.70;;
22186;SDS011;11259;52.146;12.844;2022-11-15T12:18:03;6.28;;;3.05;;
22186;SDS011;11259;52.146;12.844;2022-11-15T12:20:32;4.85;;;2.97;;
22186;SDS011;11259;52.146;12.844;2022-11-15T12:22:59;3.63;;;2.90;;
22186;SDS011;11259;52.146;12.844;2022-11-15T12:25:30;3.42;;;1.98;;
22186;SDS011;11259;52.146;12.844;2022-11-15T12:27:59;4.50;;;2.88;;
22186;SDS011;11259;52.146;12.844;2022-11-15T12:30:27;3.53;;;2.80;;
22186;SDS011;11259;52.146;12.844;2022-11-15T12:32:57;3.33;;;2.85;;
22186;SDS011;11259;52.146;12.844;2022-11-15T12:35:27;4.50;;;3.58;;
22186;SDS011;11259;52.146;12.844;2022-11-15T12:38:01;5.57;;;3.40;;
22186;SDS011;11259;52.146;12.844;2022-11-15T12:40:28;3.92;;;2.88;;
22186;SDS011;11259;52.146;12.844;2022-11-15T12:42:58;4.03;;;3.00;;
22186;SDS011;11259;52.146;12.844;2022-11-15T12:45:26;4.97;;;2.42;;
22186;SDS011;11259;52.146;12.844;2022-11-15T12:47:54;4.18;;;2.70;;
22186;SDS011;11259;52.146;12.844;2022-11-15T12:53:30;2.78;;;2.22;;
22186;SDS011;11259;52.146;12.844;2022-11-15T12:58:44;3.20;;;2.28;;
22186;SDS011;11259;52.146;12.844;2022-11-15T13:01:14;4.40;;;2.28;;
22186;SDS011;11259;52.146;12.844;2022-11-15T13:04:21;4.93;;;2.95;;
22186;SDS011;11259;52.146;12.844;2022-11-15T13:06:48;4.22;;;2.60;;
22186;SDS011;11259;52.146;12.844;2022-11-15T13:15:36;3.33;;;2.45;;
22186;SDS011;11259;52.146;12.844;2022-11-15T13:18:28;3.17;;;2.38;;
22186;SDS011;11259;52.146;12.844;2022-11-15T13:20:55;4.32;;;2.90;;
22186;SDS011;11259;52.146;12.844;2022-11-15T13:23:21;2.45;;;2.05;;
22186;SDS011;11259;52.146;12.844;2022-11-15T13:28:48;3.22;;;2.38;;
22186;SDS011;11259;52.146;12.844;2022-11-15T13:31:18;2.75;;;2.15;;
22186;SDS011;11259;52.146;12.844;2022-11-15T13:33:48;3.38;;;2.40;;
22186;SDS011;11259;52.146;12.844;2022-11-15T13:36:14;4.88;;;2.78;;
22186;SDS011;11259;52.146;12.844;2022-11-15T13:38:43;2.92;;;2.40;;
22186;SDS011;11259;52.146;12.844;2022-11-15T13:41:16;6.30;;;3.78;;
22186;SDS011;11259;52.146;12.844;2022-11-15T13:43:43;6.25;;;3.60;;
22186;SDS011;11259;52.146;12.844;2022-11-15T13:46:15;6.78;;;2.92;;
22186;SDS011;11259;52.146;12.844;2022-11-15T13:48:42;2.45;;;1.90;;
22186;SDS011;11259;52.146;12.844;2022-11-15T13:51:09;4.78;;;2.25;;
22186;SDS011;11259;52.146;12.844;2022-11-15T13:53:41;2.80;;;2.20;;
22186;SDS011;11259;52.146;12.844;2022-11-15T13:56:09;5.93;;;2.75;;
22186;SDS011;11259;52.146;12.844;2022-11-15T13:58:36;3.95;;;2.50;;
22186;SDS011;11259;52.146;12.844;2022-11-15T14:01:03;3.97;;;2.47;;
22186;SDS011;11259;52.146;12.844;2022-11-15T14:03:31;2.72;;;2.42;;
22186;SDS011;11259;52.146;12.844;2022-11-15T14:06:05;3.25;;;2.42;;
22186;SDS011;11259;52.146;12.844;2022-11-15T14:08:32;2.73;;;2.23;;
22186;SDS011;11259;52.146;12.844;2022-11-15T14:11:09;9.45;;;2.38;;
22186;SDS011;11259;52.146;12.844;2022-11-15T14:13:38;3.70;;;2.45;;
22186;SDS011;11259;52.146;12.844;2022-11-15T14:16:13;2.95;;;2.15;;
22186;SDS011;11259;52.146;12.844;2022-11-15T14:18:45;3.63;;;2.42;;
22186;SDS011;11259;52.146;12.844;2022-11-15T14:21:12;5.95;;;2.33;;
22186;SDS011;11259;52.146;12.844;2022-11-15T14:23:37;2.72;;;2.08;;
22186;SDS011;11259;52.146;12.844;2022-11-15T14:26:02;2.78;;;2.42;;
22186;SDS011;11259;52.146;12.844;2022-11-15T14:28:29;2.20;;;1.83;;
22186;SDS011;11259;52.146;12.844;2022-11-15T14:30:55;3.42;;;2.40;;
22186;SDS011;11259;52.146;12.844;2022-11-15T14:33:23;2.90;;;2.15;;
22186;SDS011;11259;52.146;12.844;2022-11-15T14:35:51;2.92;;;1.98;;
22186;SDS011;11259;52.146;12.844;2022-11-15T14:38:17;2.65;;;2.28;;
22186;SDS011;11259;52.146;12.844;2022-11-15T14:40:43;2.38;;;1.92;;
22186;SDS011;11259;52.146;12.844;2022-11-15T14:43:09;2.65;;;2.42;;
22186;SDS011;11259;52.146;12.844;2022-11-15T14:45:35;2.47;;;2.13;;
22186;SDS011;11259;52.146;12.844;2022-11-15T14:48:00;4.43;;;2.15;;
22186;SDS011;11259;52.146;12.844;2022-11-15T14:50:26;2.72;;;2.00;;
22186;SDS011;11259;52.146;12.844;2022-11-15T14:52:52;2.65;;;2.00;;
22186;SDS011;11259;52.146;12.844;2022-11-15T14:55:19;2.53;;;2.28;;
22186;SDS011;11259;52.146;12.844;2022-11-15T14:57:46;4.65;;;2.28;;
22186;SDS011;11259;52.146;12.844;2022-11-15T15:00:12;3.67;;;2.22;;